createdAt,value
2016-11-28T00:00:42.024Z,0
2016-11-28T00:01:51.731Z,0
2016-11-28T00:03:01.830Z,0
2016-11-28T00:04:11.219Z,0
2016-11-28T00:05:21.219Z,0
2016-11-28T00:06:30.927Z,0
2016-11-28T00:07:40.927Z,0
2016-11-28T00:08:50.318Z,0
2016-11-28T00:10:00.330Z,0
2016-11-28T00:11:10.027Z,0
2016-11-28T00:12:19.752Z,0
2016-11-28T00:13:30.186Z,0
2016-11-28T00:14:40.208Z,0
2016-11-28T00:15:49.928Z,0
2016-11-28T00:17:00.271Z,0
2016-11-28T00:18:10.655Z,0
2016-11-28T00:19:20.652Z,0
2016-11-28T00:20:30.664Z,0
2016-11-28T00:21:40.999Z,0
2016-11-28T00:22:50.677Z,0
2016-11-28T00:24:00.373Z,0
2016-11-28T00:25:10.402Z,0
2016-11-28T00:26:20.782Z,0
2016-11-28T00:27:30.531Z,0
2016-11-28T00:28:40.540Z,0
2016-11-28T00:29:50.549Z,0
2016-11-28T00:31:00.757Z,0
2016-11-28T00:32:11.087Z,0
2016-11-28T00:33:20.540Z,0
2016-11-28T00:34:30.532Z,0
2016-11-28T00:35:40.871Z,0
2016-11-28T00:36:50.876Z,0
2016-11-28T00:38:00.909Z,0
2016-11-28T00:39:10.931Z,0
2016-11-28T00:40:20.639Z,0
2016-11-28T00:41:30.664Z,0
2016-11-28T00:42:40.728Z,0
2016-11-28T00:43:51.178Z,0
2016-11-28T00:45:00.577Z,0
2016-11-28T00:46:10.591Z,0
2016-11-28T00:47:20.946Z,0
2016-11-28T00:48:31.260Z,0
2016-11-28T00:49:41.258Z,0
2016-11-28T00:50:51.118Z,0
2016-11-28T00:52:01.460Z,0
2016-11-28T00:53:11.478Z,0
2016-11-28T00:54:20.888Z,0
2016-11-28T00:55:30.881Z,0
2016-11-28T00:56:41.209Z,0
2016-11-28T00:57:51.520Z,0
2016-11-28T00:59:01.219Z,0
2016-11-28T01:00:11.254Z,0
2016-11-28T01:01:20.651Z,0
2016-11-28T01:02:30.144Z,0
2016-11-28T01:03:40.189Z,0
2016-11-28T01:04:49.608Z,0
2016-11-28T01:05:59.490Z,0
2016-11-28T01:07:09.528Z,0
2016-11-28T01:08:18.896Z,0
2016-11-28T01:09:28.958Z,0
2016-11-28T01:10:38.955Z,0
2016-11-28T01:11:49.279Z,0
2016-11-28T01:12:59.346Z,0
2016-11-28T01:14:09.148Z,0
2016-11-28T01:15:18.220Z,0
2016-11-28T01:16:28.239Z,0
2016-11-28T01:17:38.551Z,0
2016-11-28T01:18:48.869Z,0
2016-11-28T01:19:58.321Z,0
2016-11-28T01:21:08.323Z,0
2016-11-28T01:22:18.032Z,0
2016-11-28T01:23:28.040Z,0
2016-11-28T01:24:37.730Z,0
2016-11-28T01:25:47.439Z,0
2016-11-28T01:26:57.438Z,0
2016-11-28T01:28:07.139Z,0
2016-11-28T01:29:17.219Z,0
2016-11-28T01:30:27.550Z,0
2016-11-28T01:31:37.669Z,0
2016-11-28T01:32:47.687Z,0
2016-11-28T01:33:57.395Z,0
2016-11-28T01:35:06.878Z,0
2016-11-28T01:36:16.277Z,0
2016-11-28T01:37:26.656Z,0
2016-11-28T01:38:36.675Z,0
2016-11-28T01:39:46.368Z,0
2016-11-28T01:40:56.064Z,0
2016-11-28T01:42:06.134Z,0
2016-11-28T01:43:15.871Z,0
2016-11-28T01:44:25.566Z,0
2016-11-28T01:45:35.622Z,0
2016-11-28T01:46:45.019Z,0
2016-11-28T01:47:55.383Z,0
2016-11-28T01:49:05.427Z,0
2016-11-28T01:50:15.446Z,0
2016-11-28T01:51:25.171Z,0
2016-11-28T01:52:35.498Z,0
2016-11-28T01:53:45.522Z,0
2016-11-28T01:54:54.903Z,0
2016-11-28T01:56:04.305Z,0
2016-11-28T01:57:14.388Z,0
2016-11-28T01:58:23.866Z,0
2016-11-28T01:59:33.650Z,0
2016-11-28T02:00:43.649Z,0
2016-11-28T02:01:53.732Z,0
2016-11-28T02:03:03.441Z,0
2016-11-28T02:04:13.138Z,0
2016-11-28T02:05:23.132Z,0
2016-11-28T02:06:33.217Z,0
2016-11-28T02:07:43.586Z,0
2016-11-28T02:08:53.308Z,0
2016-11-28T02:10:03.110Z,0
2016-11-28T02:11:13.169Z,0
2016-11-28T02:12:23.516Z,0
2016-11-28T02:13:33.430Z,0
2016-11-28T02:14:43.437Z,0
2016-11-28T02:15:53.433Z,0
2016-11-28T02:17:03.457Z,0
2016-11-28T02:18:13.867Z,0
2016-11-28T02:19:23.757Z,0
2016-11-28T02:20:33.457Z,0
2016-11-28T02:21:43.578Z,0
2016-11-28T02:22:53.905Z,0
2016-11-28T02:24:04.058Z,0
2016-11-28T02:25:14.057Z,0
2016-11-28T02:26:23.811Z,0
2016-11-28T02:27:34.204Z,0
2016-11-28T02:28:44.248Z,0
2016-11-28T02:29:54.727Z,0
2016-11-28T02:31:04.217Z,0
2016-11-28T02:32:14.223Z,0
2016-11-28T02:33:24.553Z,0
2016-11-28T02:34:34.647Z,0
2016-11-28T02:35:44.686Z,0
2016-11-28T02:36:54.705Z,0
2016-11-28T02:38:04.756Z,0
2016-11-28T02:39:14.828Z,0
2016-11-28T02:40:24.858Z,0
2016-11-28T02:41:34.987Z,0
2016-11-28T02:42:44.675Z,0
2016-11-28T02:43:54.689Z,0
2016-11-28T02:45:04.408Z,0
2016-11-28T02:46:13.464Z,0
2016-11-28T02:47:23.481Z,0
2016-11-28T02:48:33.265Z,0
2016-11-28T02:49:43.276Z,0
2016-11-28T02:50:53.355Z,0
2016-11-28T02:52:02.529Z,0
2016-11-28T02:53:12.540Z,0
2016-11-28T02:54:22.963Z,0
2016-11-28T02:55:32.796Z,0
2016-11-28T02:56:42.807Z,0
2016-11-28T02:57:52.497Z,0
2016-11-28T02:59:02.808Z,0
2016-11-28T03:00:12.229Z,0
2016-11-28T03:01:22.659Z,0
2016-11-28T03:02:33.107Z,0
2016-11-28T03:03:42.806Z,0
2016-11-28T03:04:52.819Z,0
2016-11-28T03:06:02.867Z,0
2016-11-28T03:07:12.883Z,0
2016-11-28T03:08:22.907Z,0
2016-11-28T03:09:32.966Z,0
2016-11-28T03:10:42.715Z,0
2016-11-28T03:11:52.723Z,0
2016-11-28T03:13:03.137Z,0
2016-11-28T03:14:13.142Z,0
2016-11-28T03:15:22.518Z,0
2016-11-28T03:16:32.629Z,0
2016-11-28T03:17:42.355Z,0
2016-11-28T03:18:52.669Z,0
2016-11-28T03:20:03.009Z,0
2016-11-28T03:21:13.335Z,0
2016-11-28T03:22:22.824Z,0
2016-11-28T03:23:32.528Z,0
2016-11-28T03:24:42.248Z,0
2016-11-28T03:25:52.265Z,0
2016-11-28T03:27:02.366Z,0
2016-11-28T03:28:12.411Z,0
2016-11-28T03:29:22.427Z,0
2016-11-28T03:30:32.317Z,0
2016-11-28T03:31:42.327Z,0
2016-11-28T03:32:52.349Z,0
2016-11-28T03:34:02.349Z,0
2016-11-28T03:35:11.782Z,0
2016-11-28T03:36:21.774Z,0
2016-11-28T03:37:31.161Z,0
2016-11-28T03:38:40.891Z,0
2016-11-28T03:39:50.419Z,0
2016-11-28T03:41:00.732Z,0
2016-11-28T03:42:10.424Z,0
2016-11-28T03:43:20.416Z,0
2016-11-28T03:44:30.113Z,0
2016-11-28T03:45:40.323Z,0
2016-11-28T03:46:50.349Z,0
2016-11-28T03:48:00.369Z,0
2016-11-28T03:49:10.509Z,0
2016-11-28T03:50:20.268Z,0
2016-11-28T03:51:30.067Z,0
2016-11-28T03:52:39.855Z,0
2016-11-28T03:53:50.163Z,0
2016-11-28T03:55:00.196Z,0
2016-11-28T03:56:10.555Z,0
2016-11-28T03:57:20.630Z,0
2016-11-28T03:58:30.417Z,0
2016-11-28T03:59:40.248Z,0
2016-11-28T04:00:50.269Z,0
2016-11-28T04:02:00.079Z,0
2016-11-28T04:03:09.914Z,0
2016-11-28T04:04:19.627Z,0
2016-11-28T04:05:29.417Z,0
2016-11-28T04:06:39.094Z,0
2016-11-28T04:07:48.801Z,0
2016-11-28T04:08:58.539Z,0
2016-11-28T04:10:08.865Z,0
2016-11-28T04:11:18.569Z,0
2016-11-28T04:12:28.045Z,0
2016-11-28T04:13:38.516Z,0
2016-11-28T04:14:48.574Z,0
2016-11-28T04:15:58.577Z,0
2016-11-28T04:17:07.992Z,0
2016-11-28T04:18:17.707Z,0
2016-11-28T04:19:27.752Z,0
2016-11-28T04:20:37.505Z,0
2016-11-28T04:21:47.830Z,0
2016-11-28T04:22:57.848Z,0
2016-11-28T04:24:07.952Z,0
2016-11-28T04:25:17.653Z,0
2016-11-28T04:26:27.676Z,0
2016-11-28T04:27:37.085Z,0
2016-11-28T04:28:46.497Z,0
2016-11-28T04:29:56.811Z,0
2016-11-28T04:31:07.137Z,0
2016-11-28T04:32:16.862Z,0
2016-11-28T04:33:26.870Z,0
2016-11-28T04:34:36.547Z,0
2016-11-28T04:35:46.303Z,0
2016-11-28T04:36:56.001Z,0
2016-11-28T04:38:06.985Z,0
2016-11-28T04:39:17.452Z,0
2016-11-28T04:40:26.869Z,0
2016-11-28T04:41:36.582Z,0
2016-11-28T04:42:47.096Z,0
2016-11-28T04:43:57.466Z,0
2016-11-28T04:45:07.786Z,0
2016-11-28T04:46:17.847Z,0
2016-11-28T04:47:27.864Z,0
2016-11-28T04:48:36.935Z,0
2016-11-28T04:49:46.942Z,0
2016-11-28T04:50:57.230Z,0
2016-11-28T04:52:06.938Z,0
2016-11-28T04:53:17.353Z,0
2016-11-28T04:54:27.676Z,0
2016-11-28T04:55:37.540Z,0
2016-11-28T04:56:47.546Z,0
2016-11-28T04:57:57.588Z,0
2016-11-28T04:59:07.295Z,0
2016-11-28T05:00:17.007Z,0
2016-11-28T05:01:27.018Z,0
2016-11-28T05:02:37.151Z,0
2016-11-28T05:03:46.682Z,0
2016-11-28T05:04:55.957Z,0
2016-11-28T05:06:05.056Z,0
2016-11-28T05:07:15.138Z,0
2016-11-28T05:08:25.147Z,0
2016-11-28T05:09:34.841Z,0
2016-11-28T05:10:44.849Z,0
2016-11-28T05:11:55.167Z,0
2016-11-28T05:13:05.587Z,0
2016-11-28T05:14:15.623Z,0
2016-11-28T05:15:25.746Z,0
2016-11-28T05:16:35.434Z,0
2016-11-28T05:17:45.146Z,0
2016-11-28T05:18:54.846Z,0
2016-11-28T05:20:04.859Z,0
2016-11-28T05:21:15.317Z,0
2016-11-28T05:22:25.396Z,0
2016-11-28T05:23:35.095Z,0
2016-11-28T05:24:44.504Z,0
2016-11-28T05:25:54.865Z,0
2016-11-28T05:27:03.976Z,0
2016-11-28T05:28:13.778Z,0
2016-11-28T05:29:24.162Z,0
2016-11-28T05:30:34.228Z,0
2016-11-28T05:31:43.983Z,0
2016-11-28T05:32:53.674Z,0
2016-11-28T05:34:03.714Z,0
2016-11-28T05:35:13.925Z,0
2016-11-28T05:36:23.941Z,0
2016-11-28T05:37:33.865Z,0
2016-11-28T05:38:44.028Z,0
2016-11-28T05:39:54.395Z,0
2016-11-28T05:41:04.767Z,0
2016-11-28T05:42:14.497Z,0
2016-11-28T05:43:24.266Z,0
2016-11-28T05:44:34.397Z,0
2016-11-28T05:45:44.426Z,0
2016-11-28T05:46:54.816Z,0
2016-11-28T05:48:04.630Z,0
2016-11-28T05:49:14.989Z,0
2016-11-28T05:50:24.433Z,0
2016-11-28T05:51:34.745Z,0
2016-11-28T05:52:45.086Z,0
2016-11-28T05:53:54.916Z,96
2016-11-28T05:55:04.991Z,96
2016-11-28T05:56:14.724Z,96
2016-11-28T05:57:25.071Z,92
2016-11-28T05:58:35.022Z,92
2016-11-28T05:59:45.028Z,96
2016-11-28T06:00:55.057Z,96
2016-11-28T06:02:04.755Z,92
2016-11-28T06:03:14.877Z,0
2016-11-28T06:04:24.918Z,0
2016-11-28T06:05:35.139Z,0
2016-11-28T06:06:44.867Z,0
2016-11-28T06:07:54.913Z,0
2016-11-28T06:09:05.265Z,0
2016-11-28T06:10:14.958Z,0
2016-11-28T06:11:25.419Z,0
2016-11-28T06:12:35.465Z,0
2016-11-28T06:13:45.773Z,0
2016-11-28T06:14:55.762Z,0
2016-11-28T06:16:05.154Z,0
2016-11-28T06:17:14.878Z,0
2016-11-28T06:18:25.270Z,0
2016-11-28T06:19:35.290Z,0
2016-11-28T06:20:45.447Z,0
2016-11-28T06:21:55.773Z,0
2016-11-28T06:23:05.270Z,0
2016-11-28T06:24:14.964Z,0
2016-11-28T06:25:24.689Z,0
2016-11-28T06:26:34.459Z,0
2016-11-28T06:27:44.205Z,0
2016-11-28T06:28:54.577Z,0
2016-11-28T06:30:04.929Z,0
2016-11-28T06:31:15.318Z,0
2016-11-28T06:32:25.338Z,0
2016-11-28T06:33:35.666Z,0
2016-11-28T06:34:45.426Z,0
2016-11-28T06:35:55.727Z,0
2016-11-28T06:37:05.745Z,0
2016-11-28T06:38:15.136Z,0
2016-11-28T06:39:25.164Z,0
2016-11-28T06:40:35.276Z,0
2016-11-28T06:41:45.099Z,4
2016-11-28T06:42:55.452Z,0
2016-11-28T06:44:05.521Z,0
2016-11-28T06:45:15.230Z,4
2016-11-28T06:46:24.935Z,0
2016-11-28T06:47:35.246Z,4
2016-11-28T06:48:45.716Z,8
2016-11-28T06:49:55.739Z,4
2016-11-28T06:51:05.766Z,4
2016-11-28T06:52:15.830Z,8
2016-11-28T06:53:26.158Z,8
2016-11-28T06:54:36.168Z,12
2016-11-28T06:55:45.616Z,12
2016-11-28T06:56:55.632Z,16
2016-11-28T06:58:05.328Z,16
2016-11-28T06:59:15.164Z,20
2016-11-28T07:00:25.189Z,24
2016-11-28T07:01:35.229Z,24
2016-11-28T07:02:44.919Z,28
2016-11-28T07:03:54.700Z,28
2016-11-28T07:05:04.760Z,36
2016-11-28T07:06:15.088Z,36
2016-11-28T07:07:25.128Z,40
2016-11-28T07:08:35.228Z,48
2016-11-28T07:09:45.528Z,52
2016-11-28T07:10:54.923Z,56
2016-11-28T07:12:04.648Z,60
2016-11-28T07:13:14.652Z,68
2016-11-28T07:14:24.649Z,72
2016-11-28T07:15:35.468Z,76
2016-11-28T07:18:05.103Z,92
2016-11-28T07:20:03.089Z,104
2016-11-28T07:22:16.878Z,116
